Time;durP1;ratioP1;P1;durP2;ratioP2;P2;SDS_P1;SDS_P2;PMS_P1;PMS_P2;Temp;Humidity;BMP_temperature;BMP_pressure;BME280_temperature;BME280_humidity;BME280_pressure;Samples;Min_cycle;Max_cycle;Signal;HPM_P1;HPM_P2
2022/02/21 00:02:11;;;;;;;79.70;41.05;;;128.90;2252.80;;;;;;5052413;28;20036;-64
2022/02/21 00:04:37;;;;;;;56.78;33.83;;;128.70;2252.80;;;;;;5051936;28;20380;-65
2022/02/21 00:07:03;;;;;;;52.58;32.55;;;128.80;2252.80;;;;;;5051798;28;20053;-63
2022/02/21 00:09:29;;;;;;;154.40;60.33;;;128.80;2252.80;;;;;;5052279;28;20032;-65
2022/02/21 00:11:55;;;;;;;131.98;61.97;;;128.90;2252.80;;;;;;5051957;28;20021;-65
2022/02/21 00:14:21;;;;;;;304.85;76.65;;;128.80;2252.80;;;;;;5052312;28;20025;-62
2022/02/21 00:16:47;;;;;;;183.85;57.92;;;128.70;2252.80;;;;;;5051978;28;20395;-61
2022/02/21 00:19:12;;;;;;;93.60;48.45;;;128.40;2252.80;;;;;;5051854;28;20024;-60
2022/02/21 00:21:38;;;;;;;76.03;43.28;;;128.40;2252.80;;;;;;5051936;28;20035;-64
2022/02/21 00:24:05;;;;;;;97.90;54.17;;;128.50;2252.80;;;;;;5051694;28;20028;-60
2022/02/21 00:26:30;;;;;;;145.48;69.63;;;128.50;2252.80;;;;;;5051771;28;20029;-58
2022/02/21 00:28:56;;;;;;;98.68;54.50;;;128.60;2252.80;;;;;;5051710;28;20119;-64
2022/02/21 00:31:22;;;;;;;171.98;74.65;;;128.50;2252.80;;;;;;5051810;28;20476;-58
2022/02/21 00:33:48;;;;;;;79.75;37.92;;;128.60;2252.80;;;;;;5051324;28;20362;-64
2022/02/21 00:36:14;;;;;;;146.23;47.63;;;128.50;2252.80;;;;;;5051902;28;20107;-63
2022/02/21 00:38:40;;;;;;;192.60;48.78;;;128.50;2252.80;;;;;;5051714;28;20170;-61
2022/02/21 00:41:05;;;;;;;308.50;71.18;;;128.40;2252.80;;;;;;5051474;28;20033;-63
2022/02/21 00:43:31;;;;;;;289.90;88.43;;;128.40;2252.80;;;;;;5051959;28;20037;-65
2022/02/21 00:45:57;;;;;;;568.10;143.18;;;128.90;2252.80;;;;;;5051498;28;20025;-61
2022/02/21 00:48:23;;;;;;;480.05;90.50;;;128.30;2252.80;;;;;;5051226;28;20036;-60
2022/02/21 00:50:48;;;;;;;326.60;58.53;;;128.20;2252.80;;;;;;5051578;28;20098;-59
2022/02/21 00:53:14;;;;;;;62.22;31.70;;;128.30;2252.80;;;;;;5051339;28;20029;-61
2022/02/21 00:55:40;;;;;;;95.30;38.13;;;128.20;2252.80;;;;;;5051443;28;20080;-65
2022/02/21 00:58:06;;;;;;;48.17;27.63;;;128.10;2252.80;;;;;;5051184;28;20036;-58
2022/02/21 01:00:33;;;;;;;33.53;18.83;;;128.20;2252.80;;;;;;5051359;28;20025;-60
2022/02/21 01:02:59;;;;;;;114.28;36.88;;;128.10;2252.80;;;;;;5051341;28;20025;-57
2022/02/21 01:05:25;;;;;;;56.53;26.35;;;103.30;2227.20;;;;;;5050846;28;20090;-58
2022/02/21 01:07:51;;;;;;;69.32;29.35;;;103.00;2227.20;;;;;;5051147;28;20037;-62
2022/02/21 01:10:17;;;;;;;136.88;41.03;;;103.00;2227.20;;;;;;5051037;28;20029;-61
2022/02/21 01:12:43;;;;;;;198.07;47.90;;;102.90;2227.20;;;;;;5051197;28;20534;-58
2022/02/21 01:15:13;;;;;;;126.45;37.80;;;102.50;2227.20;;;;;;5051305;28;20025;-62
2022/02/21 01:17:39;;;;;;;49.63;26.25;;;102.60;2227.20;;;;;;5051094;28;20057;-63
2022/02/21 01:20:06;;;;;;;43.17;25.42;;;102.80;2227.20;;;;;;5050760;28;20056;-60
2022/02/21 01:22:33;;;;;;;87.65;41.05;;;102.80;2227.20;;;;;;5051291;28;20029;-62
2022/02/21 01:24:59;;;;;;;53.80;29.58;;;102.80;2227.20;;;;;;5049023;28;20060;-61
2022/02/21 01:27:25;;;;;;;36.47;20.98;;;102.90;2227.20;;;;;;5038334;28;20037;-59
2022/02/21 01:29:51;;;;;;;166.70;91.30;;;102.90;2227.20;;;;;;5038870;28;20024;-59
2022/02/21 01:32:18;;;;;;;76.57;44.67;;;103.00;2227.20;;;;;;5040354;28;20036;-59
2022/02/21 01:34:44;;;;;;;35.97;22.88;;;102.90;2227.20;;;;;;5038751;28;20061;-63
2022/02/21 01:37:10;;;;;;;62.58;35.45;;;102.90;2227.20;;;;;;5038836;28;20443;-61
2022/02/21 01:39:36;;;;;;;68.68;23.63;;;103.00;2227.20;;;;;;5040080;28;20104;-61
2022/02/21 01:42:03;;;;;;;40.42;19.90;;;102.80;2227.20;;;;;;5038508;28;20025;-64
2022/02/21 01:44:37;;;;;;;50.90;21.52;;;102.80;2227.20;;;;;;5038051;28;20059;-64
2022/02/21 01:47:05;;;;;;;51.22;20.77;;;102.80;2227.20;;;;;;5038244;28;20129;-60
2022/02/21 01:49:30;;;;;;;24.33;16.13;;;102.70;2227.20;;;;;;5038634;28;20541;-60
2022/02/21 01:51:56;;;;;;;23.00;16.25;;;77.70;2227.20;;;;;;5039749;28;20017;-58
2022/02/21 01:54:22;;;;;;;33.28;15.60;;;102.40;2227.20;;;;;;5038377;28;20108;-59
2022/02/21 01:56:48;;;;;;;38.40;17.67;;;102.40;2227.20;;;;;;5031846;28;20060;-63
2022/02/21 01:59:14;;;;;;;27.48;16.83;;;102.40;2227.20;;;;;;5029040;28;20069;-62
2022/02/21 02:01:40;;;;;;;38.70;20.38;;;102.40;2227.20;;;;;;5032709;28;20116;-64
2022/02/21 02:04:05;;;;;;;26.10;14.82;;;102.60;2227.20;;;;;;5033254;28;20022;-64
2022/02/21 02:09:53;;;;;;;24.02;13.45;;;102.40;2227.20;;;;;;5033182;28;20055;-62
2022/02/21 02:12:19;;;;;;;19.35;12.52;;;77.70;2227.20;;;;;;5033487;28;20108;-61
2022/02/21 02:14:45;;;;;;;18.73;11.50;;;77.50;2227.20;;;;;;5033093;28;20496;-62
2022/02/21 02:17:15;;;;;;;18.60;10.60;;;77.60;2227.20;;;;;;5033139;28;20034;-63
2022/02/21 02:19:43;;;;;;;23.02;14.20;;;77.70;2227.20;;;;;;5033325;28;20073;-63
2022/02/21 02:25:30;;;;;;;12.98;7.70;;;102.40;2227.20;;;;;;5033059;28;20497;-60
2022/02/21 02:27:56;;;;;;;11.00;6.82;;;102.40;2227.20;;;;;;5033175;28;20112;-60
2022/02/21 02:30:22;;;;;;;14.52;8.32;;;102.40;2227.20;;;;;;5032893;28;20025;-65
2022/02/21 02:32:50;;;;;;;20.83;13.00;;;102.60;2227.20;;;;;;5033236;28;20030;-66
2022/02/21 02:35:16;;;;;;;14.32;9.52;;;102.60;2227.20;;;;;;5033150;28;20033;-65
2022/02/21 02:37:42;;;;;;;12.20;8.88;;;102.40;2227.20;;;;;;5033025;28;20038;-66
2022/02/21 02:40:08;;;;;;;11.48;7.82;;;77.70;2227.20;;;;;;5033141;28;20029;-64
2022/02/21 02:42:34;;;;;;;13.27;9.10;;;77.70;2227.20;;;;;;5032766;28;20120;-63
2022/02/21 02:44:59;;;;;;;11.07;7.00;;;77.60;2227.20;;;;;;5032736;28;20121;-62
2022/02/21 02:47:25;;;;;;;13.02;7.55;;;102.40;2227.20;;;;;;5032897;28;20128;-63
2022/02/21 02:49:51;;;;;;;11.60;7.05;;;77.70;2227.20;;;;;;5032998;28;20030;-61
2022/02/21 02:55:38;;;;;;;12.15;6.70;;;77.60;2227.20;;;;;;5033145;28;20368;-63
2022/02/21 02:58:04;;;;;;;8.90;6.30;;;77.70;2227.20;;;;;;5036609;28;20030;-62
2022/02/21 03:00:30;;;;;;;27.23;12.85;;;77.70;2227.20;;;;;;5037002;28;20025;-65
2022/02/21 03:02:55;;;;;;;34.20;16.42;;;102.40;2227.20;;;;;;5036554;28;20033;-63
2022/02/21 03:05:21;;;;;;;9.95;6.50;;;102.50;2227.20;;;;;;5036336;28;20395;-63
2022/02/21 03:07:47;;;;;;;14.25;7.95;;;102.60;2227.20;;;;;;5036601;28;20034;-59
2022/02/21 03:10:13;;;;;;;8.85;5.43;;;102.60;2227.20;;;;;;5036662;28;20028;-65
2022/02/21 03:12:39;;;;;;;9.02;5.22;;;102.70;2227.20;;;;;;5036975;28;20383;-64
2022/02/21 03:15:05;;;;;;;9.07;6.13;;;102.60;2227.20;;;;;;5036239;28;20025;-63
2022/02/21 03:17:31;;;;;;;8.50;5.22;;;102.60;2227.20;;;;;;5036572;28;20029;-59
2022/02/21 03:19:57;;;;;;;9.02;5.93;;;102.70;2227.20;;;;;;5036257;28;20029;-59
2022/02/21 03:25:44;;;;;;;12.43;8.10;;;102.50;2227.20;;;;;;5036178;28;20506;-59
2022/02/21 03:28:10;;;;;;;12.07;7.78;;;102.60;2227.20;;;;;;5035950;28;20073;-62
2022/02/21 03:30:36;;;;;;;23.90;20.50;;;102.70;2227.20;;;;;;5036119;28;20025;-64
2022/02/21 03:33:05;;;;;;;13.40;10.63;;;102.70;2227.20;;;;;;5036019;28;20075;-65
2022/02/21 03:35:31;;;;;;;11.88;7.80;;;102.80;2227.20;;;;;;5035899;28;20059;-59
2022/02/21 03:37:56;;;;;;;14.20;8.73;;;102.80;2227.20;;;;;;5036305;28;20029;-64
2022/02/21 03:40:22;;;;;;;12.23;7.93;;;102.80;2227.20;;;;;;5036146;28;20071;-65
2022/02/21 03:42:48;;;;;;;10.52;6.20;;;102.90;2227.20;;;;;;5035838;28;20082;-63
2022/02/21 03:45:13;;;;;;;10.50;7.05;;;102.90;2227.20;;;;;;5036010;28;20108;-63
2022/02/21 03:47:40;;;;;;;11.73;7.40;;;102.90;2227.20;;;;;;5035922;28;20187;-63
2022/02/21 03:50:06;;;;;;;41.38;23.77;;;102.90;2227.20;;;;;;5036023;28;20506;-64
2022/02/21 03:55:55;;;;;;;52.30;31.80;;;102.80;2227.20;;;;;;5035612;28;20107;-64
2022/02/21 03:58:21;;;;;;;81.57;44.33;;;102.80;2227.20;;;;;;5035940;28;20025;-63
2022/02/21 04:00:47;;;;;;;71.38;43.72;;;102.80;2227.20;;;;;;5035795;28;20029;-64
2022/02/21 04:03:13;;;;;;;19.95;12.05;;;102.80;2227.20;;;;;;5035776;28;20099;-60
2022/02/21 04:05:38;;;;;;;74.55;40.95;;;103.10;2227.20;;;;;;5035181;28;20442;-64
2022/02/21 04:08:05;;;;;;;21.92;13.48;;;128.20;2252.80;;;;;;5034652;28;20108;-59
2022/02/21 04:10:31;;;;;;;38.08;20.63;;;128.60;2252.80;;;;;;5035652;28;20060;-64
2022/02/21 04:12:56;;;;;;;56.58;40.95;;;128.80;2252.80;;;;;;5035297;28;20025;-64
2022/02/21 04:15:22;;;;;;;92.22;64.35;;;128.80;2252.80;;;;;;5035968;28;20060;-64
2022/02/21 04:17:50;;;;;;;35.13;25.08;;;128.90;2252.80;;;;;;5035338;28;20434;-65
2022/02/21 04:20:22;;;;;;;41.15;28.77;;;153.70;2252.80;;;;;;5035457;28;20032;-62
2022/02/21 04:26:09;;;;;;;62.03;40.83;;;153.80;2252.80;;;;;;5035066;28;20039;-63
2022/02/21 04:28:35;;;;;;;70.40;43.08;;;128.90;2252.80;;;;;;5035181;28;20037;-62
2022/02/21 04:31:01;;;;;;;83.85;49.17;;;128.70;2252.80;;;;;;5035250;28;20348;-63
2022/02/21 04:33:26;;;;;;;105.53;60.47;;;128.20;2252.80;;;;;;5035151;28;20036;-63
2022/02/21 04:35:52;;;;;;;102.25;55.47;;;128.00;2252.80;;;;;;5034825;28;20534;-64
2022/02/21 04:38:18;;;;;;;79.68;50.35;;;103.20;2227.20;;;;;;5035101;28;20033;-62
2022/02/21 04:40:43;;;;;;;120.88;68.70;;;103.10;2227.20;;;;;;5034740;28;20021;-59
2022/02/21 04:43:09;;;;;;;80.15;44.60;;;102.90;2227.20;;;;;;5035061;28;20090;-60
2022/02/21 04:45:35;;;;;;;44.22;29.65;;;102.70;2227.20;;;;;;5034699;28;20368;-59
2022/02/21 04:48:01;;;;;;;52.33;30.95;;;103.00;2227.20;;;;;;5034914;28;20084;-61
2022/02/21 04:50:26;;;;;;;39.53;23.30;;;103.20;2227.20;;;;;;5034816;28;20049;-59
2022/02/21 04:56:13;;;;;;;23.05;15.95;;;128.10;2252.80;;;;;;5034462;28;20079;-60
2022/02/21 04:58:39;;;;;;;26.83;19.27;;;128.10;2252.80;;;;;;5034721;28;20026;-61
2022/02/21 05:01:05;;;;;;;21.05;17.83;;;128.10;2252.80;;;;;;5031676;28;20033;-59
2022/02/21 05:03:31;;;;;;;42.35;29.00;;;128.10;2252.80;;;;;;5031466;28;20040;-59
2022/02/21 05:05:56;;;;;;;45.35;27.17;;;103.30;2227.20;;;;;;5031141;28;20056;-59
2022/02/21 05:08:22;;;;;;;31.70;20.40;;;103.00;2227.20;;;;;;5031329;28;20041;-62
2022/02/21 05:10:48;;;;;;;21.20;12.50;;;102.70;2227.20;;;;;;5031784;28;20033;-60
2022/02/21 05:13:13;;;;;;;12.82;9.23;;;102.80;2227.20;;;;;;5031383;28;20029;-59
2022/02/21 05:15:39;;;;;;;27.42;16.33;;;102.80;2227.20;;;;;;5031429;28;20475;-59
2022/02/21 05:18:05;;;;;;;32.50;19.88;;;102.80;2227.20;;;;;;5031190;28;20156;-62
2022/02/21 05:20:31;;;;;;;20.48;13.00;;;102.70;2227.20;;;;;;5031230;28;20032;-61
2022/02/21 05:22:56;;;;;;;16.88;10.68;;;102.80;2227.20;;;;;;5031317;28;20026;-63
2022/02/21 05:25:22;;;;;;;30.00;22.00;;;102.70;2227.20;;;;;;5031155;28;20459;-63
2022/02/21 05:27:48;;;;;;;66.90;39.50;;;102.80;2227.20;;;;;;5032044;28;20033;-66
2022/02/21 05:30:15;;;;;;;22.35;12.88;;;102.90;2227.20;;;;;;5038914;28;20017;-59
2022/02/21 05:32:42;;;;;;;30.00;18.35;;;102.90;2227.20;;;;;;5040732;28;20017;-64
2022/02/21 05:35:08;;;;;;;24.05;13.90;;;102.90;2227.20;;;;;;5038888;28;20475;-66
2022/02/21 05:37:34;;;;;;;21.17;13.23;;;102.80;2227.20;;;;;;5038726;28;20017;-69
2022/02/21 05:40:00;;;;;;;22.38;12.88;;;102.90;2227.20;;;;;;5040465;28;20098;-60
2022/02/21 05:42:26;;;;;;;23.77;14.07;;;102.90;2227.20;;;;;;5038552;28;20022;-63
2022/02/21 05:44:52;;;;;;;18.80;12.35;;;103.00;2227.20;;;;;;5036907;28;20045;-63
2022/02/21 05:47:17;;;;;;;56.60;38.97;;;103.00;2227.20;;;;;;5030968;28;20471;-63
2022/02/21 05:49:43;;;;;;;68.63;48.88;;;103.10;2227.20;;;;;;5037155;28;20036;-64
2022/02/21 05:52:09;;;;;;;77.93;48.08;;;103.10;2227.20;;;;;;5050931;28;20029;-63
2022/02/21 05:54:36;;;;;;;44.53;33.42;;;103.00;2227.20;;;;;;5050035;28;20534;-64
2022/02/21 05:57:01;;;;;;;40.88;27.80;;;103.10;2227.20;;;;;;5050485;28;20078;-63
2022/02/21 05:59:27;;;;;;;56.58;38.83;;;103.20;2227.20;;;;;;5050487;28;20021;-62
2022/02/21 06:01:53;;;;;;;51.90;34.03;;;103.10;2227.20;;;;;;5050248;28;20035;-62
2022/02/21 06:04:18;;;;;;;35.67;23.20;;;103.20;2227.20;;;;;;5050547;28;20021;-63
2022/02/21 06:06:45;;;;;;;27.33;19.15;;;103.30;2227.20;;;;;;5049764;28;20056;-62
2022/02/21 06:09:11;;;;;;;35.90;25.75;;;103.30;2227.20;;;;;;5050137;28;20536;-62
2022/02/21 06:11:37;;;;;;;40.22;27.05;;;103.30;2227.20;;;;;;5050424;28;20027;-64
2022/02/21 06:14:03;;;;;;;43.45;29.58;;;128.00;2252.80;;;;;;5049942;28;20445;-59
2022/02/21 06:16:29;;;;;;;77.53;51.60;;;128.20;2252.80;;;;;;5050203;28;20028;-62
2022/02/21 06:18:55;;;;;;;67.63;44.90;;;128.40;2252.80;;;;;;5049953;28;20035;-60
2022/02/21 06:21:21;;;;;;;86.35;56.85;;;128.50;2252.80;;;;;;5050058;28;20056;-60
2022/02/21 06:23:46;;;;;;;105.70;71.53;;;128.70;2252.80;;;;;;5049959;28;20029;-60
2022/02/21 06:26:13;;;;;;;107.60;67.32;;;128.90;2252.80;;;;;;5050033;28;20029;-61
2022/02/21 06:28:38;;;;;;;79.68;53.22;;;153.70;2252.80;;;;;;5050271;28;20039;-65
2022/02/21 06:31:08;;;;;;;87.53;57.65;;;153.70;2252.80;;;;;;5049394;28;20025;-64
2022/02/21 06:33:35;;;;;;;85.85;58.08;;;128.90;2252.80;;;;;;5049845;28;20467;-62
2022/02/21 06:36:01;;;;;;;133.75;96.13;;;128.80;2252.80;;;;;;5049892;28;20071;-60
2022/02/21 06:38:26;;;;;;;99.72;64.50;;;128.60;2252.80;;;;;;5049678;28;20068;-61
2022/02/21 06:40:52;;;;;;;404.40;269.52;;;128.60;2252.80;;;;;;5050165;28;20037;-62
2022/02/21 06:43:18;;;;;;;166.88;113.82;;;128.80;2252.80;;;;;;5049949;28;20029;-60
2022/02/21 06:45:45;;;;;;;87.38;54.55;;;128.80;2252.80;;;;;;5049842;28;20025;-61
2022/02/21 06:48:11;;;;;;;83.18;55.80;;;128.90;2252.80;;;;;;5049836;28;20061;-62
2022/02/21 06:50:37;;;;;;;110.88;75.75;;;154.50;2252.80;;;;;;5049687;28;20427;-60
2022/02/21 06:53:03;;;;;;;103.65;72.72;;;180.00;2252.80;;;;;;5049576;28;20056;-60
2022/02/21 06:55:28;;;;;;;87.20;61.25;;;179.60;2252.80;;;;;;5049690;28;20061;-60
2022/02/21 06:57:54;;;;;;;64.50;39.75;;;179.30;2252.80;;;;;;5049630;28;20025;-61
2022/02/21 07:00:20;;;;;;;69.32;45.90;;;154.50;2252.80;;;;;;5049831;28;20409;-60
2022/02/21 07:02:46;;;;;;;62.28;41.33;;;154.50;2252.80;;;;;;5049631;28;20083;-60
2022/02/21 07:05:12;;;;;;;70.22;48.58;;;179.20;2252.80;;;;;;5049573;28;20968;-60
2022/02/21 07:07:38;;;;;;;236.68;160.38;;;154.50;2252.80;;;;;;5049533;28;20120;-69
2022/02/21 07:10:06;;;;;;;257.00;173.93;;;154.30;2252.80;;;;;;5049472;28;20100;-60
2022/02/21 07:12:32;;;;;;;189.93;120.07;;;154.50;2252.80;;;;;;5049800;28;20017;-63
2022/02/21 07:14:57;;;;;;;157.10;112.53;;;154.50;2252.80;;;;;;5049599;28;20075;-60
2022/02/21 07:17:24;;;;;;;286.60;186.40;;;179.20;2252.80;;;;;;5049405;28;20024;-61
2022/02/21 07:19:51;;;;;;;173.48;112.70;;;179.30;2252.80;;;;;;5049833;28;20040;-60
2022/02/21 07:22:16;;;;;;;111.10;78.22;;;179.30;2252.80;;;;;;5049368;28;20437;-61
2022/02/21 07:24:42;;;;;;;178.35;113.25;;;179.20;2252.80;;;;;;5049508;28;20037;-60
2022/02/21 07:27:08;;;;;;;153.02;103.18;;;179.40;2252.80;;;;;;5049762;28;20033;-68
2022/02/21 07:29:36;;;;;;;254.95;175.90;;;179.50;2252.80;;;;;;5049468;28;20063;-70
2022/02/21 07:32:06;;;;;;;211.40;150.48;;;179.50;2252.80;;;;;;5049531;28;20119;-60
2022/02/21 07:34:32;;;;;;;219.27;149.93;;;154.50;2252.80;;;;;;5049426;28;20068;-60
2022/02/21 07:36:58;;;;;;;185.85;126.25;;;179.40;2252.80;;;;;;5049266;28;20040;-60
2022/02/21 07:39:24;;;;;;;163.77;119.32;;;179.80;2252.80;;;;;;5049230;28;20021;-61
2022/02/21 07:41:50;;;;;;;168.60;123.53;;;256.20;2252.80;;;;;;5049534;28;20039;-62
2022/02/21 07:44:16;;;;;;;160.05;120.60;;;333.20;2329.60;;;;;;5051686;28;20071;-62
2022/02/21 07:46:41;;;;;;;250.35;191.48;;;384.00;2150.40;;;;;;5052820;28;20068;-61
2022/02/21 07:49:07;;;;;;;236.10;184.05;;;409.80;1971.20;;;;;;5052511;28;20043;-61
2022/02/21 07:51:33;;;;;;;209.32;175.05;;;435.80;1817.60;;;;;;5052507;28;20025;-62
2022/02/21 07:53:59;;;;;;;314.23;266.75;;;436.10;1740.80;;;;;;5052694;28;20145;-62
2022/02/21 07:56:24;;;;;;;220.45;196.10;;;486.40;1689.60;;;;;;5052525;28;20051;-62
2022/02/21 07:58:50;;;;;;;235.88;202.93;;;512.40;1561.60;;;;;;5052678;28;20056;-64
2022/02/21 08:01:16;;;;;;;213.10;187.15;;;538.30;1510.40;;;;;;5052596;28;20020;-65
2022/02/21 08:03:42;;;;;;;373.73;310.08;;;563.70;1459.20;;;;;;5052367;28;20462;-64
2022/02/21 08:06:10;;;;;;;316.48;281.27;;;589.00;1382.40;;;;;;5052197;28;20044;-63
2022/02/21 08:08:36;;;;;;;226.13;201.57;;;589.20;1356.80;;;;;;5052243;28;20138;-62
2022/02/21 08:11:02;;;;;;;290.90;259.92;;;588.80;1356.80;;;;;;5052218;28;20025;-66
2022/02/21 08:13:28;;;;;;;214.07;190.63;;;589.40;1305.60;;;;;;5052368;28;20032;-63
2022/02/21 08:15:53;;;;;;;266.98;234.00;;;614.50;1280.00;;;;;;5052124;28;20025;-62
2022/02/21 08:18:19;;;;;;;295.08;264.02;;;615.20;1254.40;;;;;;5052592;28;20024;-62
2022/02/21 08:20:45;;;;;;;300.23;268.85;;;615.10;1228.80;;;;;;5052061;28;20379;-64
2022/02/21 08:23:11;;;;;;;251.20;225.57;;;640.20;1203.20;;;;;;5051967;28;20040;-60
2022/02/21 08:25:36;;;;;;;253.43;226.50;;;615.00;1228.80;;;;;;5051951;28;20025;-60
2022/02/21 08:28:03;;;;;;;268.88;239.70;;;615.00;1228.80;;;;;;5052243;28;20076;-61
2022/02/21 08:30:28;;;;;;;260.77;233.38;;;615.00;1228.80;;;;;;5052383;28;20396;-61
2022/02/21 08:32:54;;;;;;;245.63;219.38;;;640.20;1228.80;;;;;;5051896;28;20017;-61
2022/02/21 08:35:21;;;;;;;202.98;181.90;;;665.80;1177.60;;;;;;5052027;28;20068;-61
2022/02/21 08:37:47;;;;;;;220.93;198.20;;;640.50;1177.60;;;;;;5051970;28;20059;-61
2022/02/21 08:40:15;;;;;;;212.60;190.02;;;640.70;1203.20;;;;;;5051679;28;20029;-61
2022/02/21 08:42:41;;;;;;;206.57;185.35;;;640.80;1177.60;;;;;;5051903;28;20040;-61
2022/02/21 08:45:08;;;;;;;98.35;87.78;;;666.00;1177.60;;;;;;5051577;28;20033;-70
2022/02/21 08:47:34;;;;;;;65.15;57.95;;;640.70;1126.40;;;;;;5051446;28;20033;-63
2022/02/21 08:50:00;;;;;;;142.73;127.72;;;615.00;1203.20;;;;;;5051827;28;20106;-61
2022/02/21 08:52:26;;;;;;;122.05;109.45;;;640.80;1177.60;;;;;;5051341;28;20426;-61
2022/02/21 08:54:52;;;;;;;76.95;67.07;;;640.90;1203.20;;;;;;5051056;28;20025;-63
2022/02/21 08:57:17;;;;;;;145.75;130.75;;;691.30;1126.40;;;;;;5051585;28;20100;-61
2022/02/21 08:59:43;;;;;;;181.43;163.02;;;716.90;1126.40;;;;;;5051530;28;20024;-61
2022/02/21 09:02:10;;;;;;;109.88;98.15;;;717.40;1100.80;;;;;;5051662;28;20506;-61
2022/02/21 09:04:36;;;;;;;80.50;71.68;;;717.30;1075.20;;;;;;5051065;28;20480;-62
2022/02/21 09:07:02;;;;;;;28.35;25.35;;;742.40;1100.80;;;;;;5051168;28;20164;-61
2022/02/21 09:09:28;;;;;;;89.75;80.38;;;742.50;1049.60;;;;;;5051166;28;20040;-61
2022/02/21 09:11:54;;;;;;;54.08;48.40;;;743.10;1075.20;;;;;;5051151;28;20014;-62
2022/02/21 09:14:20;;;;;;;20.10;18.10;;;768.60;1024.00;;;;;;5051348;28;20423;-61
2022/02/21 09:16:46;;;;;;;12.50;11.32;;;768.20;972.80;;;;;;5051060;28;20475;-64
2022/02/21 09:19:12;;;;;;;4.28;3.08;;;742.40;1049.60;;;;;;5051008;28;20075;-61
2022/02/21 09:21:38;;;;;;;7.88;6.45;;;717.20;1024.00;;;;;;5051053;28;20051;-62
2022/02/21 09:24:04;;;;;;;5.22;4.30;;;717.60;1049.60;;;;;;5050734;28;20482;-62
2022/02/21 09:26:31;;;;;;;11.60;8.52;;;692.00;1049.60;;;;;;5050773;28;20083;-61
2022/02/21 09:28:59;;;;;;;8.95;6.05;;;691.40;1075.20;;;;;;5050459;28;20029;-62
2022/02/21 09:31:25;;;;;;;8.50;5.22;;;665.90;1126.40;;;;;;5050646;28;20409;-62
2022/02/21 09:33:51;;;;;;;6.50;3.15;;;640.30;1100.80;;;;;;5050833;28;20029;-62
2022/02/21 09:36:17;;;;;;;11.70;9.60;;;615.20;1152.00;;;;;;5050698;28;20035;-61
2022/02/21 09:38:43;;;;;;;6.28;3.00;;;589.40;1228.80;;;;;;5050535;28;20379;-61
2022/02/21 09:41:08;;;;;;;4.40;2.95;;;563.70;1280.00;;;;;;5050636;28;20090;-60
2022/02/21 09:43:34;;;;;;;3.67;2.47;;;538.50;1305.60;;;;;;5050290;28;20108;-72
2022/02/21 09:46:02;;;;;;;6.28;4.20;;;512.90;1331.20;;;;;;5050543;28;20074;-60
2022/02/21 09:48:28;;;;;;;7.22;3.20;;;512.50;1382.40;;;;;;5050419;28;20544;-61
2022/02/21 09:50:59;;;;;;;4.63;2.55;;;487.20;1408.00;;;;;;5050167;28;20029;-61
2022/02/21 09:53:27;;;;;;;3.47;2.33;;;487.00;1433.60;;;;;;5050268;28;20021;-62
2022/02/21 09:55:53;;;;;;;5.47;2.70;;;486.70;1433.60;;;;;;5050165;28;20036;-61
2022/02/21 09:58:20;;;;;;;8.13;2.95;;;486.80;1433.60;;;;;;5050420;28;20060;-61
2022/02/21 10:00:45;;;;;;;5.45;2.80;;;486.50;1484.80;;;;;;5050200;28;20021;-63
2022/02/21 10:03:11;;;;;;;3.97;2.38;;;486.60;1459.20;;;;;;5050462;28;20036;-70
2022/02/21 10:05:37;;;;;;;10.55;7.25;;;461.70;1484.80;;;;;;5048989;28;20056;-63
2022/02/21 10:08:07;;;;;;;5.78;4.05;;;461.60;1484.80;;;;;;5049909;28;20095;-61
2022/02/21 10:10:37;;;;;;;5.43;3.42;;;461.50;1484.80;;;;;;5049889;28;20104;-60
2022/02/21 10:13:03;;;;;;;5.38;4.25;;;461.40;1484.80;;;;;;5049880;28;20467;-62
2022/02/21 10:15:31;;;;;;;5.88;3.60;;;461.50;1510.40;;;;;;5050092;28;20082;-63
2022/02/21 10:18:17;;;;;;;3.55;2.53;;;461.40;1510.40;;;;;;5050142;28;20030;-61
2022/02/21 10:20:55;;;;;;;5.05;2.28;;;461.30;1536.00;;;;;;5049901;28;20497;-64
2022/02/21 10:23:21;;;;;;;3.35;2.10;;;461.20;1510.40;;;;;;5050054;28;20351;-61
2022/02/21 10:25:54;;;;;;;4.97;3.80;;;461.20;1536.00;;;;;;5050031;28;20079;-61
2022/02/21 10:28:27;;;;;;;5.78;4.05;;;461.10;1510.40;;;;;;5050030;28;20045;-62
2022/02/21 10:31:08;;;;;;;;;;;461.20;1510.40;;;;;;5050176;28;20497;-67
2022/02/21 10:33:34;;;;;;;5.80;4.60;;;461.20;1587.20;;;;;;5049722;28;20007;-62
2022/02/21 10:35:59;;;;;;;5.95;2.97;;;461.30;1561.60;;;;;;5050030;28;20069;-60
2022/02/21 10:38:39;;;;;;;5.85;3.67;;;461.20;1536.00;;;;;;5049643;28;20348;-61
2022/02/21 10:41:08;;;;;;;3.53;2.28;;;461.40;1510.40;;;;;;5049658;28;20025;-61
2022/02/21 10:43:34;;;;;;;6.50;4.07;;;461.50;1536.00;;;;;;5049554;28;20075;-60
2022/02/21 10:46:12;;;;;;;3.85;2.45;;;461.70;1484.80;;;;;;5049828;28;20032;-61
2022/02/21 10:48:44;;;;;;;79.30;68.47;;;486.60;1510.40;;;;;;5049614;28;20124;-62
2022/02/21 10:51:10;;;;;;;6.57;4.55;;;486.80;1484.80;;;;;;5050101;28;20079;-62
2022/02/21 10:53:41;;;;;;;11.85;8.63;;;486.80;1433.60;;;;;;5049824;28;20053;-60
2022/02/21 10:56:07;;;;;;;31.60;20.10;;;486.80;1459.20;;;;;;5049589;28;20104;-62
2022/02/21 10:58:33;;;;;;;21.67;14.55;;;486.90;1433.60;;;;;;5049472;28;20025;-61
2022/02/21 11:01:00;;;;;;;5.10;2.85;;;486.90;1408.00;;;;;;5049709;28;20078;-61
2022/02/21 11:03:28;;;;;;;4.72;3.33;;;486.80;1433.60;;;;;;5049803;28;20486;-61
2022/02/21 11:05:59;;;;;;;12.02;7.53;;;486.90;1408.00;;;;;;5049291;28;20109;-65
2022/02/21 11:08:28;;;;;;;5.55;2.85;;;486.90;1408.00;;;;;;5049328;28;20632;-61
2022/02/21 11:11:05;;;;;;;10.35;6.15;;;487.00;1408.00;;;;;;5049301;28;20033;-61
2022/02/21 11:13:33;;;;;;;55.88;33.47;;;487.10;1408.00;;;;;;5049571;28;20028;-62
2022/02/21 11:16:00;;;;;;;12.00;6.80;;;487.10;1408.00;;;;;;5049526;28;20029;-61
2022/02/21 11:18:27;;;;;;;18.27;12.43;;;487.00;1408.00;;;;;;5052460;28;20044;-61
2022/02/21 11:20:53;;;;;;;4.78;2.58;;;487.10;1408.00;;;;;;5053252;28;20178;-62
2022/02/21 11:23:19;;;;;;;9.80;6.57;;;487.20;1433.60;;;;;;5053747;28;20138;-61
2022/02/21 11:26:10;;;;;;;9.55;5.00;;;487.30;1433.60;;;;;;5053264;28;20067;-61
2022/02/21 11:28:48;;;;;;;23.42;15.35;;;512.10;1433.60;;;;;;5052943;28;20044;-61
2022/02/21 11:31:24;;;;;;;8.52;6.80;;;487.30;1433.60;;;;;;5053204;28;20029;-60
2022/02/21 11:34:09;;;;;;;18.83;14.65;;;512.10;1484.80;;;;;;5053496;28;20075;-61
2022/02/21 11:36:57;;;;;;;5.30;3.63;;;487.30;1408.00;;;;;;5052840;28;20033;-60
2022/02/21 11:39:29;;;;;;;6.35;4.22;;;487.20;1459.20;;;;;;5053017;28;20045;-65
2022/02/21 11:42:17;;;;;;;7.97;4.93;;;487.30;1408.00;;;;;;5053081;28;20028;-61
2022/02/21 11:44:48;;;;;;;19.00;14.75;;;512.10;1433.60;;;;;;5052807;28;20025;-61
2022/02/21 11:47:34;;;;;;;9.98;7.53;;;512.20;1408.00;;;;;;5052686;28;20100;-61
2022/02/21 11:50:01;;;;;;;13.18;11.77;;;512.20;1408.00;;;;;;5053118;28;20124;-61
2022/02/21 11:52:30;;;;;;;10.02;7.07;;;512.20;1408.00;;;;;;5052801;28;20442;-60
2022/02/21 11:54:56;;;;;;;22.08;15.50;;;512.00;1408.00;;;;;;5052587;28;20017;-61
2022/02/21 11:57:29;;;;;;;13.40;10.05;;;487.30;1408.00;;;;;;5052596;28;20482;-61
2022/02/21 11:59:55;;;;;;;7.25;5.55;;;487.30;1433.60;;;;;;5052312;28;20535;-61
2022/02/21 12:02:20;;;;;;;23.48;15.80;;;512.10;1408.00;;;;;;5052736;28;20112;-60
2022/02/21 12:04:53;;;;;;;22.85;20.45;;;512.20;1408.00;;;;;;5052343;28;20017;-61
2022/02/21 12:07:47;;;;;;;9.82;6.35;;;512.20;1408.00;;;;;;5052301;28;20499;-62
2022/02/21 12:10:13;;;;;;;;;;;512.40;1408.00;;;;;;5052309;28;20065;-61
2022/02/21 12:12:51;;;;;;;6.80;4.75;;;512.50;1382.40;;;;;;5052392;28;20270;-62
2022/02/21 12:15:18;;;;;;;7.95;5.28;;;512.50;1382.40;;;;;;5052410;28;20051;-61
2022/02/21 12:17:44;;;;;;;5.95;4.88;;;512.60;1382.40;;;;;;5052168;28;20486;-62
2022/02/21 12:20:30;;;;;;;8.05;5.28;;;512.70;1382.40;;;;;;5052326;28;20033;-62
2022/02/21 12:23:19;;;;;;;8.27;5.90;;;512.90;1382.40;;;;;;5051867;28;20039;-62
2022/02/21 12:25:57;;;;;;;5.70;4.57;;;512.60;1356.80;;;;;;5049991;28;20029;-62